Northeast Philadelphia Airport
KPNE : now visible

Airfield :











YOU CAN JOIN US ON...

 
LOGIN :

Register | Disclaimer

   EN    FR    IT 

 









Legend :    VFR   Marginal VFR   IFR   Intensive IFR   Very Intensive IFR
Visi :
Ceiling :
>= 8 km
>= 3000ft
5 to 8 km
1000 to 3000 ft
1500m to 5 km
500 to 1000 ft
800 to 1500m
200 to 500 ft
< 800m
< 200 ft
Symbols :   Thunderstorms  Fog  Heavy snow  Heavy precipitations  Wind > 20 kt






- Airport Elevation : 120 ft


KPNE - Northeast Philadelphia

CURRENT METAR :
  • 100654Z AUTO 27017G26KT 10SM FEW055 FEW110 06/M03 A2945 RMK AO2 PK WND 29033/0555 SLP971 T00611028

EXPIRED METARs :
  • 100554Z AUTO 29019G31KT 10SM FEW040 BKN100 07/M02 A2944 RMK AO2 PK WND 27031/0545 SLP970 60000 T00721022 10122 20067 50000
  • 100454Z AUTO 27009G23KT 10SM FEW039 BKN060 OVC075 08/M01 A2945 RMK AO2 PK WND 29028/0413 SLP971 T00831011 402000078

TAF KPNE
Valid from the 10 at 06:00 until the 11 at 06:00 UTC


100520Z 1006/1106 27014G24KT P6SM SCT040 BKN070
FM101300 29021G38KT P6SM BKN050
FM110100 30014G22KT P6SM SCT100



MET'MAP, your aeronautical weather chart ! - Copyright ORBIFLY December 2007 - Disclaimer

ORBIFLY MET'MAP TEAM :

Programming & Development : Alexandra Zaïnal
Concept & original design : Baudouin d'Aumeries
Assistance for programming : Marc-Olivier Méhu
Technical & hardware support : Manuel Goepfert

Contact : metmap@orbifly.com




SOURCES & CREDITS :

   NOAA       Earth
Advisory